createdAt,value
2023-01-07T00:04:30.846Z,90.50
2023-01-07T00:09:32.922Z,90.60
2023-01-07T00:14:35.092Z,90.70
2023-01-07T00:19:37.069Z,90.70
2023-01-07T00:24:39.371Z,90.20
2023-01-07T00:29:41.613Z,90.80
2023-01-07T00:34:43.681Z,91.40
2023-01-07T00:39:45.891Z,91.60
2023-01-07T00:44:47.887Z,91.70
2023-01-07T00:49:49.941Z,91.80
2023-01-07T00:54:52.146Z,92.10
2023-01-07T00:59:54.213Z,92.30
2023-01-07T01:04:56.331Z,92.10
2023-01-07T01:09:58.518Z,92.30
2023-01-07T01:15:00.851Z,92.60
2023-01-07T01:20:04.538Z,92.90
2023-01-07T01:25:07.196Z,93.00
2023-01-07T01:30:11.182Z,92.90
2023-01-07T01:35:15.204Z,93.00
2023-01-07T01:40:18.523Z,93.20
2023-01-07T01:45:20.621Z,92.90
2023-01-07T01:50:36.556Z,92.90
2023-01-07T01:55:47.335Z,92.50
2023-01-07T02:00:50.833Z,92.70
2023-01-07T02:05:54.244Z,92.50
2023-01-07T02:11:40.283Z,92.50
2023-01-07T02:16:57.406Z,92.30
2023-01-07T02:22:33.712Z,92.30
2023-01-07T02:27:57.533Z,92.00
2023-01-07T02:33:33.134Z,91.50
2023-01-07T02:39:12.650Z,90.20
2023-01-07T02:44:35.831Z,90.00
2023-01-07T02:49:38.296Z,88.60
2023-01-07T02:54:40.930Z,86.00
2023-01-07T03:00:30.129Z,86.20
2023-01-07T03:05:49.030Z,84.90
2023-01-07T03:11:08.038Z,83.70
2023-01-07T03:16:24.192Z,86.40
2023-01-07T03:21:31.510Z,87.10
2023-01-07T03:26:48.831Z,84.20
2023-01-07T03:32:12.860Z,84.20
2023-01-07T03:37:20.008Z,84.80
2023-01-07T03:42:42.827Z,84.10
2023-01-07T03:47:55.635Z,83.60
2023-01-07T03:52:59.738Z,85.20
2023-01-07T03:58:03.771Z,84.00
2023-01-07T04:03:05.981Z,86.60
2023-01-07T04:08:13.331Z,86.00
2023-01-07T04:13:16.478Z,86.70
2023-01-07T04:18:21.239Z,88.00
2023-01-07T04:23:23.366Z,87.80
2023-01-07T04:28:27.714Z,88.10
2023-01-07T04:33:29.973Z,89.10
2023-01-07T04:38:32.803Z,88.90
2023-01-07T04:43:36.250Z,87.80
2023-01-07T04:48:40.724Z,88.50
2023-01-07T04:53:43.065Z,87.50
2023-01-07T04:58:45.397Z,87.50
2023-01-07T05:03:48.663Z,87.70
2023-01-07T05:08:51.907Z,87.60
2023-01-07T05:13:55.109Z,87.40
2023-01-07T05:18:59.872Z,86.80
2023-01-07T05:24:02.795Z,86.70
2023-01-07T05:29:04.947Z,87.30
2023-01-07T05:34:08.688Z,88.20
2023-01-07T05:39:12.061Z,87.90
2023-01-07T05:44:14.147Z,88.20
2023-01-07T05:49:16.182Z,89.70
2023-01-07T05:54:18.254Z,90.00
2023-01-07T05:59:20.296Z,89.00
2023-01-07T06:04:22.289Z,90.40
2023-01-07T06:09:24.327Z,90.60
2023-01-07T06:14:26.318Z,90.20
2023-01-07T06:19:28.380Z,89.00
2023-01-07T06:24:30.376Z,88.40
2023-01-07T06:29:32.624Z,88.50
2023-01-07T06:34:34.661Z,89.40
2023-01-07T06:39:36.659Z,90.90
2023-01-07T06:44:38.861Z,90.80
2023-01-07T06:49:41.150Z,91.30
2023-01-07T06:54:43.165Z,90.90
2023-01-07T06:59:45.171Z,90.00
2023-01-07T07:04:47.255Z,90.10
2023-01-07T07:09:50.726Z,91.10
2023-01-07T07:14:52.711Z,91.30
2023-01-07T07:19:54.732Z,91.40
2023-01-07T07:24:56.745Z,91.60
2023-01-07T07:29:58.778Z,91.40
2023-01-07T07:35:01.046Z,90.80
2023-01-07T07:40:05.243Z,90.50
2023-01-07T07:45:08.663Z,90.40
2023-01-07T07:50:11.049Z,90.10
2023-01-07T07:55:20.306Z,90.00
2023-01-07T08:00:28.488Z,90.10
2023-01-07T08:05:31.706Z,89.80
2023-01-07T08:10:33.692Z,88.30
2023-01-07T08:15:36.333Z,87.70
2023-01-07T08:20:39.093Z,89.00
2023-01-07T08:25:41.305Z,89.20
2023-01-07T08:30:43.402Z,87.30
2023-01-07T08:35:45.706Z,88.30
2023-01-07T08:40:47.882Z,88.90
2023-01-07T08:45:51.385Z,89.50
2023-01-07T08:50:54.985Z,88.10
2023-01-07T08:55:57.148Z,88.10
2023-01-07T09:01:06.421Z,89.00
2023-01-07T09:06:08.896Z,88.10
2023-01-07T09:11:11.203Z,87.70
2023-01-07T09:16:13.329Z,89.20
2023-01-07T09:21:15.400Z,88.50
2023-01-07T09:26:17.656Z,89.00
2023-01-07T09:31:19.878Z,88.00
2023-01-07T09:36:22.019Z,86.30
2023-01-07T09:42:03.785Z,86.50
2023-01-07T09:47:09.500Z,88.10
2023-01-07T09:52:21.483Z,88.70
2023-01-07T09:57:23.600Z,88.10
2023-01-07T10:02:50.653Z,89.80
2023-01-07T10:08:29.487Z,88.20
2023-01-07T10:14:05.992Z,86.80
2023-01-07T10:19:42.655Z,85.20
2023-01-07T10:24:53.015Z,84.40
2023-01-07T10:30:02.419Z,83.20
2023-01-07T10:35:12.825Z,80.50
2023-01-07T10:40:38.410Z,82.50
2023-01-07T10:46:11.583Z,82.90
2023-01-07T10:51:39.102Z,83.00
2023-01-07T10:56:58.163Z,83.50
2023-01-07T11:02:01.158Z,84.30
2023-01-07T11:07:40.509Z,84.90
2023-01-07T11:13:00.432Z,84.90
2023-01-07T11:18:12.541Z,84.40
2023-01-07T11:23:35.823Z,80.60
2023-01-07T11:28:48.649Z,73.30
2023-01-07T11:49:31.108Z,65.20
2023-01-07T11:54:33.330Z,51.70
2023-01-07T11:59:35.642Z,52.20
2023-01-07T12:04:37.968Z,50.30
2023-01-07T12:25:44.410Z,50.50
2023-01-07T12:36:22.618Z,48.60
2023-01-07T12:41:34.166Z,53.20
2023-01-07T12:46:44.803Z,49.50
2023-01-07T12:52:34.798Z,48.80
2023-01-07T12:57:40.654Z,55.60
2023-01-07T13:34:29.794Z,59.60
2023-01-07T13:40:09.328Z,68.30
2023-01-07T13:45:24.463Z,68.50
2023-01-07T13:50:55.529Z,69.20
2023-01-07T13:56:23.861Z,69.70
2023-01-07T14:01:34.973Z,69.80
2023-01-07T14:06:49.117Z,69.30
2023-01-07T14:12:09.267Z,69.80
2023-01-07T14:18:07.471Z,71.30
2023-01-07T14:23:42.288Z,71.00
2023-01-07T14:29:26.569Z,70.80
2023-01-07T14:34:28.847Z,70.00
2023-01-07T14:39:41.036Z,71.70
2023-01-07T14:44:43.266Z,70.60
2023-01-07T15:48:12.264Z,70.70
2023-01-07T15:53:14.224Z,77.90
2023-01-07T15:58:24.373Z,76.50
2023-01-07T16:03:28.744Z,79.00
2023-01-07T16:08:33.680Z,79.50
2023-01-07T16:13:36.937Z,79.20
2023-01-07T16:18:41.411Z,79.30
2023-01-07T16:23:46.392Z,80.50
2023-01-07T16:28:57.685Z,80.70
2023-01-07T16:34:02.239Z,81.20
2023-01-07T16:39:33.413Z,81.70
2023-01-07T16:44:44.607Z,82.30
2023-01-07T16:49:46.655Z,82.50
2023-01-07T16:54:52.590Z,82.50
2023-01-07T17:00:02.107Z,82.80
2023-01-07T17:05:24.698Z,83.30
2023-01-07T17:10:32.794Z,84.40
2023-01-07T17:15:39.545Z,84.20
2023-01-07T17:20:51.282Z,84.20
2023-01-07T17:26:21.398Z,84.10
2023-01-07T17:31:24.593Z,85.30
2023-01-07T17:36:26.911Z,86.40
2023-01-07T17:41:48.019Z,87.20
2023-01-07T17:46:50.166Z,87.70
2023-01-07T17:51:54.641Z,88.20
2023-01-07T17:56:56.904Z,88.20
2023-01-07T18:02:00.562Z,88.90
2023-01-07T18:07:02.637Z,89.30
2023-01-07T18:12:23.023Z,89.40
2023-01-07T18:17:26.109Z,89.70
2023-01-07T18:22:28.155Z,90.20
2023-01-07T18:27:30.177Z,90.50
2023-01-07T18:32:32.203Z,90.80
2023-01-07T18:37:34.216Z,90.90
2023-01-07T18:42:37.111Z,90.90
2023-01-07T18:47:39.684Z,90.80
2023-01-07T18:52:43.286Z,90.80
2023-01-07T18:57:45.689Z,91.00
2023-01-07T19:02:47.783Z,91.20
2023-01-07T19:07:50.138Z,91.40
2023-01-07T19:12:52.282Z,91.50
2023-01-07T19:17:54.249Z,91.80
2023-01-07T19:23:00.430Z,91.40
2023-01-07T19:28:02.582Z,91.50
2023-01-07T19:33:04.604Z,91.40
2023-01-07T19:38:06.966Z,91.30
2023-01-07T19:43:09.134Z,91.00
2023-01-07T19:48:11.640Z,91.00
2023-01-07T19:53:13.837Z,91.00
2023-01-07T19:58:16.553Z,91.10
2023-01-07T20:03:18.629Z,91.30
2023-01-07T20:08:20.851Z,91.50
2023-01-07T20:13:22.931Z,91.50
2023-01-07T20:18:24.973Z,91.60
2023-01-07T20:23:27.728Z,91.80
2023-01-07T20:28:29.998Z,92.00
2023-01-07T20:33:32.034Z,91.90
2023-01-07T20:38:35.623Z,92.10
2023-01-07T20:43:38.149Z,92.30
2023-01-07T20:48:40.422Z,92.40
2023-01-07T20:53:43.837Z,92.40
2023-01-07T20:58:46.874Z,92.50
2023-01-07T21:03:50.038Z,92.60
2023-01-07T21:08:52.164Z,92.70
2023-01-07T21:13:56.498Z,92.80
2023-01-07T21:18:58.936Z,93.00
2023-01-07T21:24:01.121Z,92.90
2023-01-07T21:29:03.218Z,92.80
2023-01-07T21:34:05.201Z,92.70
2023-01-07T21:39:08.579Z,92.50
2023-01-07T21:44:12.736Z,92.40
2023-01-07T21:49:15.193Z,92.40
2023-01-07T21:54:17.265Z,92.50
2023-01-07T21:59:21.001Z,92.40
2023-01-07T22:04:23.168Z,92.40
2023-01-07T22:09:25.409Z,92.40
2023-01-07T22:14:27.526Z,92.50
2023-01-07T22:19:29.608Z,92.50
2023-01-07T22:24:32.655Z,92.70
2023-01-07T22:29:36.744Z,92.60
2023-01-07T22:34:38.885Z,92.70
2023-01-07T22:39:58.488Z,92.50
2023-01-07T22:45:10.387Z,92.20
2023-01-07T22:50:14.679Z,92.20
2023-01-07T22:55:17.163Z,92.40
2023-01-07T23:01:06.162Z,92.60
2023-01-07T23:06:11.028Z,92.80
2023-01-07T23:11:33.510Z,93.00
2023-01-07T23:16:37.278Z,92.80
2023-01-07T23:21:44.150Z,92.60
2023-01-07T23:26:48.848Z,92.30
2023-01-07T23:31:51.562Z,92.20
2023-01-07T23:36:53.615Z,92.00
2023-01-07T23:41:55.749Z,91.90
2023-01-07T23:46:57.826Z,92.10
2023-01-07T23:52:00.111Z,92.40
2023-01-07T23:57:02.119Z,92.70
